»·PEaware :: N872G CYBW-KBFI

N872G :: CYBW-KBFI

FLIGHT INFORMATION

Flight Status: Arrived
Operator: Privately registered:
United States
More flights under this callsign
Pilot: Gabor H. (24209)
Aircraft: CESSNA 510 CITATION MUSTANG
(C510)
More flights by this aircraft type
Origin: CYBW Springbank
Canada
Destination: KBFI Boeing Field/King Co Intl
United States
More flights between these airports :: More routes between these airports
Route: DUMRA Q890 ROPLA YXC GLASR1
File this flight plan on PilotEdge
Remarks:
Altitude:
(Current/Filed)
36,000ft
Speed:
(Current/Filed)
340kts
Departed: 13-Dec-20 04:16 PM
Arrived: 13-Dec-20 05:46 PM
Distance/Time
Traveled:
377nm/1:29
Distance/Time
To Go:
Arrived

Flight Plot

Page will automatically refresh every two minutes.

Flight plan parsing failed; only flown route is shown


Map Options




Map Legend


Flown Route
Filed Route
Departure Airport
Arrival Airport
Navaid (VOR, NDB)
Fix

Horizontal Profiles

Position Reports

Time Latitude Longitude Heading Altitude Ground
Speed
13-Dec-20 16:03 51.103052 -114.372048 177 3942ft 0kts
13-Dec-20 16:04 51.103052 -114.372048 177 3942ft 0kts
13-Dec-20 16:05 51.103052 -114.372048 177 3942ft 0kts
13-Dec-20 16:06 51.103052 -114.372048 177 3942ft 0kts
13-Dec-20 16:07 51.103052 -114.372048 177 3942ft 0kts
13-Dec-20 16:08 51.103052 -114.372048 177 3942ft 0kts
13-Dec-20 16:09 51.103052 -114.372048 178 3942ft 0kts
13-Dec-20 16:10 51.103052 -114.372048 177 3942ft 0kts
13-Dec-20 16:11 51.103052 -114.372048 177 3942ft 0kts
13-Dec-20 16:11 51.103052 -114.372048 177 3942ft 0kts
13-Dec-20 16:13 51.103401 -114.375191 253 3942ft 12kts
13-Dec-20 16:13 51.106916 -114.375888 3 3942ft 20kts
13-Dec-20 16:15 51.112076 -114.377256 270 3942ft 8kts
13-Dec-20 16:15 51.110041 -114.378700 179 3942ft 58kts
13-Dec-20 16:16 51.067550 -114.377454 177 5702ft 203kts
13-Dec-20 16:17 51.012601 -114.364123 169 9111ft 212kts
13-Dec-20 16:18 50.951878 -114.344299 172 11878ft 238kts
13-Dec-20 16:19 50.885596 -114.322803 172 14618ft 250kts
13-Dec-20 16:20 50.816418 -114.300370 172 17114ft 260kts
13-Dec-20 16:21 50.744815 -114.277094 173 19392ft 267kts
13-Dec-20 16:22 50.671433 -114.253329 173 21468ft 273kts
13-Dec-20 16:23 50.599791 -114.268559 203 23341ft 264kts
13-Dec-20 16:24 50.529385 -114.304925 203 24936ft 272kts
13-Dec-20 16:25 50.456528 -114.342561 203 26321ft 281kts
13-Dec-20 16:26 50.381141 -114.381266 202 27558ft 290kts
13-Dec-20 16:27 50.303344 -114.421006 202 28652ft 298kts
13-Dec-20 16:28 50.223577 -114.461552 201 29622ft 306kts
13-Dec-20 16:29 50.141798 -114.502956 201 30546ft 312kts
13-Dec-20 16:30 50.058395 -114.544930 201 31364ft 319kts
13-Dec-20 16:31 49.974216 -114.587379 201 32340ft 318kts
13-Dec-20 16:32 49.890278 -114.629361 201 33323ft 317kts
13-Dec-20 16:33 49.806630 -114.671005 200 34303ft 315kts
13-Dec-20 16:34 49.723509 -114.712200 201 35301ft 313kts
13-Dec-20 16:35 49.687348 -114.817712 261 36008ft 297kts
13-Dec-20 16:36 49.673896 -114.946293 262 36009ft 310kts
13-Dec-20 16:37 49.660403 -115.079757 262 36010ft 318kts
13-Dec-20 16:38 49.646626 -115.215546 262 36014ft 322kts
13-Dec-20 16:39 49.632479 -115.353389 262 36013ft 328kts
13-Dec-20 16:40 49.617985 -115.493025 262 36003ft 330kts
13-Dec-20 16:41 49.603347 -115.632688 261 35989ft 332kts
13-Dec-20 16:42 49.588331 -115.773996 260 36003ft 334kts
13-Dec-20 16:43 49.573093 -115.915192 261 36006ft 333kts
13-Dec-20 16:44 49.557831 -116.056081 260 36003ft 334kts
13-Dec-20 16:45 49.523742 -116.189535 246 36000ft 337kts
13-Dec-20 16:46 49.484466 -116.319892 246 36000ft 336kts
13-Dec-20 16:47 49.445065 -116.449690 246 35998ft 335kts
13-Dec-20 16:48 49.405688 -116.578701 246 35997ft 334kts
13-Dec-20 16:49 49.366095 -116.707737 245 36026ft 332kts
13-Dec-20 16:50 49.326842 -116.834953 245 36092ft 330kts
13-Dec-20 16:51 49.287471 -116.961953 245 36101ft 330kts
13-Dec-20 16:52 49.247891 -117.089078 245 36119ft 330kts
13-Dec-20 16:53 49.208315 -117.215372 245 36123ft 330kts
13-Dec-20 16:54 49.168510 -117.341785 245 36121ft 330kts
13-Dec-20 16:55 49.128685 -117.467643 245 36118ft 330kts
13-Dec-20 16:56 49.088605 -117.593700 245 36117ft 330kts
13-Dec-20 16:57 49.048390 -117.719474 244 36119ft 330kts
13-Dec-20 16:58 49.008044 -117.845087 244 36119ft 330kts
13-Dec-20 16:59 48.967700 -117.970057 244 36128ft 329kts
13-Dec-20 17:00 48.927214 -118.094785 244 36127ft 329kts
13-Dec-20 17:01 48.886442 -118.219530 244 36127ft 329kts
13-Dec-20 17:02 48.845511 -118.344168 244 36127ft 329kts
13-Dec-20 17:03 48.804522 -118.468450 244 36127ft 329kts
13-Dec-20 17:04 48.763503 -118.592159 244 36126ft 329kts
13-Dec-20 17:05 48.722191 -118.716135 243 36129ft 329kts
13-Dec-20 17:06 48.680690 -118.840200 243 36119ft 330kts
13-Dec-20 17:07 48.639068 -118.963941 243 36112ft 331kts
13-Dec-20 17:08 48.597309 -119.087437 243 36110ft 331kts
13-Dec-20 17:09 48.555226 -119.211365 243 36117ft 330kts
13-Dec-20 17:10 48.513164 -119.334544 243 36121ft 331kts
13-Dec-20 17:11 48.470789 -119.458152 243 36125ft 333kts
13-Dec-20 17:12 48.428131 -119.581991 243 36125ft 334kts
13-Dec-20 17:13 48.385126 -119.706119 243 36124ft 336kts
13-Dec-20 17:14 48.341920 -119.830416 243 36130ft 334kts
13-Dec-20 17:15 48.298489 -119.954733 243 35404ft 341kts
13-Dec-20 17:16 48.255484 -120.077827 242 33596ft 326kts
13-Dec-20 17:17 48.214133 -120.195016 240 31891ft 318kts
13-Dec-20 17:18 48.171557 -120.314991 240 30172ft 337kts
13-Dec-20 17:19 48.126256 -120.441936 240 28320ft 352kts
13-Dec-20 17:20 48.080330 -120.569914 240 26456ft 343kts
13-Dec-20 17:21 48.037389 -120.689359 239 24732ft 328kts
13-Dec-20 17:22 47.994882 -120.806982 240 23033ft 317kts
13-Dec-20 17:23 47.953260 -120.921525 240 21357ft 312kts
13-Dec-20 17:24 47.912243 -121.034265 241 19740ft 306kts
13-Dec-20 17:25 47.872062 -121.144211 240 18123ft 298kts
13-Dec-20 17:26 47.858973 -121.260316 273 16377ft 288kts
13-Dec-20 17:27 47.866242 -121.376988 273 14846ft 285kts
13-Dec-20 17:28 47.873514 -121.494191 274 13322ft 280kts
13-Dec-20 17:29 47.880478 -121.606702 274 11884ft 268kts
13-Dec-20 17:30 47.876920 -121.713035 227 10982ft 258kts
13-Dec-20 17:31 47.858928 -121.812901 265 9669ft 261kts
13-Dec-20 17:32 47.855034 -121.921645 265 8271ft 262kts
13-Dec-20 17:33 47.852144 -122.027962 265 6998ft 249kts
13-Dec-20 17:34 47.849906 -122.129981 265 7001ft 244kts
13-Dec-20 17:35 47.847828 -122.229602 265 6690ft 225kts
13-Dec-20 17:36 47.846862 -122.317267 265 5306ft 207kts
13-Dec-20 17:37 47.825439 -122.390770 236 4216ft 199kts
13-Dec-20 17:38 47.783342 -122.435559 186 2942ft 199kts
13-Dec-20 17:39 47.734079 -122.444861 185 2486ft 153kts
13-Dec-20 17:40 47.692778 -122.443675 143 2530ft 165kts
13-Dec-20 17:41 47.650930 -122.404915 150 2480ft 180kts
13-Dec-20 17:42 47.614246 -122.373864 150 1703ft 134kts
13-Dec-20 17:43 47.581625 -122.346225 150 973ft 136kts
13-Dec-20 17:44 47.551389 -122.320573 149 294ft 107kts
13-Dec-20 17:46 47.534272 -122.305937 138 20ft 12kts
13-Dec-20 17:47 47.533861 -122.303497 61 21ft 9kts
13-Dec-20 17:48 47.535722 -122.303120 140 24ft 0kts
13-Dec-20 17:49 47.535722 -122.303120 140 24ft 0kts
13-Dec-20 17:50 47.535722 -122.303120 140 24ft 0kts
13-Dec-20 17:51 47.535722 -122.303120 140 24ft 0kts
13-Dec-20 17:52 47.535722 -122.303120 140 24ft 0kts
13-Dec-20 17:53 47.535722 -122.303120 140 24ft 0kts
13-Dec-20 17:54 47.535722 -122.303120 140 24ft 0kts
13-Dec-20 17:55 47.534099 -122.302855 151 22ft 15kts
13-Dec-20 17:56 47.530759 -122.300090 149 22ft 10kts
13-Dec-20 17:57 47.526577 -122.298001 147 21ft 15kts
13-Dec-20 17:58 47.524836 -122.295394 20 22ft 4kts
13-Dec-20 17:59 47.524886 -122.295246 170 22ft 0kts
13-Dec-20 18:00 47.524886 -122.295246 170 22ft 0kts

Navigation Log

Ident Type
Flight plan parsing failed, navigation log unavailable